Bellaghy, United Kingdom
Current Conditions -  °F | °C
As of 6:50 PM on Tuesday 27 Jan 2015 (Local Time) from EGAA Reporting Station
Broken Clouds Broken Clouds  
Wind Chill: 40°   Ceiling: 1300
Heat Index: 45°   Visibility: 6mi
Dew Point: 41°   Wind: 8mph
Humidity: 87%   Direction: 190°S
Pressure: 30"   Gusts: NA
Location:  54.81°N, 6.52°W
Report Text: EGAA 271850Z 19007KT 9999 BKN013 07/05 Q1016
Loading
Personal Weather Stations






























Interactive Weather Map New forecast layout! Learn more

10-Day Weather Forecast

Advertisements
Track Severe Weather on mobile